Time;durP1;ratioP1;P1;durP2;ratioP2;P2;SDS_P1;SDS_P2;PMS_P1;PMS_P2;Temp;Humidity;BMP_temperature;BMP_pressure;BME280_temperature;BME280_humidity;BME280_pressure;Samples;Min_cycle;Max_cycle;Signal;HPM_P1;HPM_P2
2023/06/11 00:00:30;;;;;;;10.75;7.55;;;;;;;22.24;61.41;100343.16;5063394;28;20202;-66
2023/06/11 00:02:56;;;;;;;9.02;7.32;;;;;;;22.24;61.86;100353.94;5072358;28;20225;-69
2023/06/11 00:05:24;;;;;;;8.15;7.05;;;;;;;22.35;61.15;100353.56;5063326;28;20251;-65
2023/06/11 00:07:51;;;;;;;8.70;7.45;;;;;;;22.34;61.48;100349.09;5072080;28;20669;-69
2023/06/11 00:10:17;;;;;;;8.65;7.70;;;;;;;22.35;61.20;100353.56;5059978;28;20717;-68
2023/06/11 00:12:44;;;;;;;9.30;7.55;;;;;;;22.34;61.34;100341.88;5052112;28;20190;-67
2023/06/11 00:15:11;;;;;;;8.20;7.03;;;;;;;22.27;61.31;100344.88;5048632;28;20237;-67
2023/06/11 00:17:38;;;;;;;9.63;7.40;;;;;;;22.28;61.51;100354.72;5056527;28;20653;-68
2023/06/11 00:20:11;;;;;;;8.23;7.32;;;;;;;22.30;60.76;100355.56;5072207;28;20194;-68
2023/06/11 00:22:39;;;;;;;9.07;7.20;;;;;;;22.26;61.16;100357.47;5072310;28;20226;-67
2023/06/11 00:25:07;;;;;;;7.85;7.00;;;;;;;22.30;61.13;100360.94;5069220;28;20226;-67
2023/06/11 00:27:37;;;;;;;8.75;7.03;;;;;;;22.30;61.73;100363.66;5045611;28;20203;-68
2023/06/11 00:30:05;;;;;;;8.98;7.05;;;;;;;22.28;61.33;100362.81;5057825;28;20667;-68
2023/06/11 00:32:33;;;;;;;8.27;7.30;;;;;;;22.31;61.12;100365.41;5044475;28;20195;-68
2023/06/11 00:35:01;;;;;;;9.05;7.60;;;;;;;22.30;61.13;100356.44;5067073;28;20214;-68
2023/06/11 00:37:30;;;;;;;11.30;7.60;;;;;;;22.34;60.88;100354.50;5071482;28;20202;-67
2023/06/11 00:39:57;;;;;;;7.95;7.15;;;;;;;22.32;60.89;100354.56;5052919;28;20194;-67
2023/06/11 00:42:23;;;;;;;9.48;7.40;;;;;;;22.35;61.52;100362.53;5062992;28;22400;-66
2023/06/11 00:44:49;;;;;;;9.60;8.00;;;;;;;22.27;61.84;100366.44;5051397;28;20219;-67
2023/06/11 00:47:16;;;;;;;10.65;7.43;;;;;;;22.27;61.48;100366.44;5050539;28;20198;-69
2023/06/11 00:49:44;;;;;;;8.18;6.85;;;;;;;22.19;62.04;100361.34;5056509;28;20202;-68
2023/06/11 00:52:14;;;;;;;8.90;7.68;;;;;;;22.13;61.83;100351.63;5056404;28;20194;-68
2023/06/11 00:54:41;;;;;;;11.18;7.85;;;;;;;22.13;61.96;100348.94;5070949;28;20218;-69
2023/06/11 00:57:08;;;;;;;10.27;7.43;;;;;;;22.06;62.30;100366.28;5071107;28;20213;-68
2023/06/11 00:59:34;;;;;;;11.00;7.50;;;;;;;22.02;62.95;100366.41;5055187;28;20714;-67
2023/06/11 01:02:21;;;;;;;9.98;7.72;;;;;;;21.90;63.69;100370.38;5047363;28;20218;-68
2023/06/11 01:04:57;;;;;;;9.75;7.63;;;;;;;21.73;64.40;100368.25;5046089;28;20223;-67
2023/06/11 01:07:34;;;;;;;9.07;7.63;;;;;;;21.69;64.47;100360.31;5070310;28;20193;-69
2023/06/11 01:10:01;;;;;;;10.50;7.65;;;;;;;21.62;64.89;100373.09;5067072;28;20674;-68
2023/06/11 01:12:28;;;;;;;9.20;7.70;;;;;;;21.59;65.13;100362.41;5071023;28;20202;-68
2023/06/11 01:14:54;;;;;;;10.90;8.43;;;;;;;21.50;65.35;100358.19;5070599;28;20309;-68
2023/06/11 01:17:34;;;;;;;8.52;7.63;;;;;;;21.47;65.63;100365.50;5045994;28;20240;-67
2023/06/11 01:20:14;;;;;;;11.00;7.97;;;;;;;21.36;66.09;100357.75;5046956;28;20205;-69
2023/06/11 01:22:54;;;;;;;9.35;7.55;;;;;;;21.38;66.27;100363.97;5044961;28;20218;-67
2023/06/11 01:25:31;;;;;;;9.40;8.40;;;;;;;21.30;66.61;100357.94;5056775;28;20214;-68
2023/06/11 01:28:08;;;;;;;10.60;7.63;;;;;;;21.31;66.76;100361.53;5048431;28;20693;-69
2023/06/11 01:30:41;;;;;;;8.82;7.82;;;;;;;21.20;67.08;100361.78;5056532;28;20208;-68
2023/06/11 01:33:08;;;;;;;13.57;7.97;;;;;;;21.11;67.61;100371.03;5070939;28;20209;-68
2023/06/11 01:35:35;;;;;;;9.52;7.22;;;;;;;21.06;68.01;100366.72;5052295;28;20318;-68
2023/06/11 01:38:02;;;;;;;8.45;7.55;;;;;;;21.06;68.27;100377.50;5035553;28;20252;-69
2023/06/11 01:40:28;;;;;;;9.02;7.55;;;;;;;20.91;68.93;100373.47;5058746;28;20194;-68
2023/06/11 01:42:55;;;;;;;11.02;8.93;;;;;;;20.87;69.01;100371.78;5070541;28;20225;-68
2023/06/11 01:45:23;;;;;;;9.23;7.82;;;;;;;20.79;69.55;100377.38;5064613;28;20218;-68
2023/06/11 01:47:50;;;;;;;8.68;7.78;;;;;;;20.78;69.89;100377.41;5048179;28;20213;-67
2023/06/11 01:50:18;;;;;;;9.57;8.38;;;;;;;20.64;70.39;100376.00;5060811;28;20579;-68
2023/06/11 01:52:45;;;;;;;10.93;8.52;;;;;;;20.48;71.64;100363.03;5050233;28;20195;-68
2023/06/11 01:55:12;;;;;;;11.02;8.45;;;;;;;20.45;71.80;100371.19;5049216;28;20317;-68
2023/06/11 01:57:38;;;;;;;9.75;7.65;;;;;;;20.49;71.81;100367.50;5054053;28;20665;-68
2023/06/11 02:00:11;;;;;;;9.45;8.23;;;;;;;20.42;72.20;100376.66;5070129;28;20212;-66
2023/06/11 02:02:43;;;;;;;11.77;8.45;;;;;;;20.41;72.51;100372.16;5052100;28;20226;-68
2023/06/11 02:05:10;;;;;;;9.93;8.57;;;;;;;20.30;72.52;100370.63;5057404;28;20222;-69
2023/06/11 02:07:37;;;;;;;11.00;7.97;;;;;;;20.23;73.05;100378.91;5062680;28;20270;-68
2023/06/11 02:10:04;;;;;;;10.57;8.52;;;;;;;20.04;73.98;100375.81;5069954;28;20202;-69
2023/06/11 02:12:31;;;;;;;9.77;8.57;;;;;;;20.12;74.19;100378.31;5069960;28;20194;-70
2023/06/11 02:14:58;;;;;;;9.20;8.10;;;;;;;20.14;73.60;100377.34;5060864;28;20741;-68
2023/06/11 02:17:24;;;;;;;9.25;8.10;;;;;;;20.12;74.06;100376.50;5032910;28;20191;-68
2023/06/11 02:19:51;;;;;;;11.63;8.53;;;;;;;20.04;73.97;100378.50;5059638;28;20278;-69
2023/06/11 02:22:17;;;;;;;9.68;7.85;;;;;;;20.05;74.02;100369.53;5049263;28;20218;-68
2023/06/11 02:24:44;;;;;;;10.50;7.93;;;;;;;20.08;73.71;100363.19;5054298;28;20651;-67
2023/06/11 02:27:10;;;;;;;9.25;8.07;;;;;;;20.08;73.40;100366.75;5049484;28;20205;-68
2023/06/11 02:29:37;;;;;;;9.63;7.97;;;;;;;20.12;73.11;100373.81;5062553;28;20220;-69
2023/06/11 02:32:04;;;;;;;8.90;8.00;;;;;;;20.05;73.39;100374.91;5069053;28;20194;-69
2023/06/11 02:34:31;;;;;;;12.17;8.20;;;;;;;19.91;74.08;100367.16;5061106;28;20280;-68
2023/06/11 02:36:57;;;;;;;13.07;8.23;;;;;;;19.90;73.95;100378.84;5052235;28;20194;-69
2023/06/11 02:39:23;;;;;;;10.00;7.40;;;;;;;19.89;74.21;100379.75;5068925;28;20205;-68
2023/06/11 02:41:50;;;;;;;10.90;8.00;;;;;;;19.91;74.17;100382.41;5046139;28;20229;-68
2023/06/11 02:44:16;;;;;;;8.60;7.70;;;;;;;19.90;74.53;100376.16;5052323;28;20234;-68
2023/06/11 02:46:43;;;;;;;12.10;7.73;;;;;;;19.83;74.71;100381.72;5049674;28;20211;-68
2023/06/11 02:49:09;;;;;;;10.67;8.27;;;;;;;19.71;75.34;100381.09;5048629;28;20285;-69
2023/06/11 02:51:35;;;;;;;10.13;8.37;;;;;;;19.64;75.96;100384.88;5055340;28;20194;-69
2023/06/11 02:54:02;;;;;;;12.63;8.80;;;;;;;19.64;75.67;100383.97;5069593;28;20202;-68
2023/06/11 02:56:29;;;;;;;9.70;7.87;;;;;;;19.75;74.89;100381.03;5061549;28;20227;-67
2023/06/11 02:58:55;;;;;;;10.93;8.60;;;;;;;19.88;74.08;100388.75;5045112;28;20738;-68
2023/06/11 03:01:22;;;;;;;11.37;8.27;;;;;;;19.81;73.99;100383.56;5044068;28;20209;-69
2023/06/11 03:03:48;;;;;;;8.63;7.57;;;;;;;19.75;74.07;100387.28;5059096;28;20260;-68
2023/06/11 03:06:15;;;;;;;8.73;7.60;;;;;;;19.78;74.28;100384.53;5073173;28;20268;-68
2023/06/11 03:08:41;;;;;;;10.77;7.93;;;;;;;19.79;73.92;100380.91;5065107;28;20196;-68
2023/06/11 03:11:07;;;;;;;9.83;7.53;;;;;;;19.84;73.77;100389.75;5066798;28;20198;-68
2023/06/11 03:13:34;;;;;;;8.77;7.23;;;;;;;19.78;74.36;100392.59;5060179;28;20586;-68
2023/06/11 03:16:00;;;;;;;9.23;7.63;;;;;;;19.68;74.43;100401.78;5052336;28;20596;-68
2023/06/11 03:18:27;;;;;;;11.37;7.60;;;;;;;19.73;74.54;100389.13;5049310;28;20245;-68
2023/06/11 03:20:53;;;;;;;10.07;7.67;;;;;;;19.71;74.84;100405.28;5050188;28;20195;-68
2023/06/11 03:23:19;;;;;;;8.87;7.53;;;;;;;19.78;74.42;100400.66;5072616;28;20302;-68
2023/06/11 03:25:46;;;;;;;11.93;7.73;;;;;;;19.78;74.46;100400.66;5059608;28;20317;-70
2023/06/11 03:28:12;;;;;;;8.73;7.50;;;;;;;19.78;74.22;100392.59;5051921;28;20203;-70
2023/06/11 03:30:39;;;;;;;8.80;7.90;;;;;;;19.93;73.55;100402.94;5073151;28;20206;-68
2023/06/11 03:33:05;;;;;;;9.53;7.73;;;;;;;19.94;73.33;100406.53;5073104;28;20225;-68
2023/06/11 03:35:32;;;;;;;9.23;8.10;;;;;;;19.86;73.92;100403.13;5056792;28;20222;-68
2023/06/11 03:37:58;;;;;;;9.53;7.60;;;;;;;19.85;73.96;100413.00;5057806;28;20285;-68
2023/06/11 03:40:25;;;;;;;9.30;8.13;;;;;;;19.84;73.98;100407.66;5054367;28;20697;-68
2023/06/11 03:42:51;;;;;;;9.10;7.80;;;;;;;19.91;73.71;100414.66;5052507;28;20584;-69
2023/06/11 03:45:17;;;;;;;8.43;7.47;;;;;;;19.82;74.18;100415.78;5049196;28;20215;-68
2023/06/11 03:47:44;;;;;;;10.20;7.30;;;;;;;19.82;73.98;100406.84;5072535;28;20201;-68
2023/06/11 03:50:12;;;;;;;14.30;8.20;;;;;;;19.76;74.70;100421.31;5072546;28;20198;-68
2023/06/11 03:52:38;;;;;;;9.37;7.67;;;;;;;19.79;74.50;100423.91;5070740;28;20252;-68
2023/06/11 03:55:06;;;;;;;8.53;7.30;;;;;;;19.78;74.36;100422.16;5057887;28;20265;-68
2023/06/11 03:57:32;;;;;;;11.77;7.47;;;;;;;19.76;74.52;100420.41;5052284;28;20194;-68
2023/06/11 03:59:58;;;;;;;9.13;7.73;;;;;;;19.79;74.29;100431.09;5052032;28;20570;-68
2023/06/11 04:02:26;;;;;;;10.57;7.73;;;;;;;19.77;74.82;100425.75;5060126;28;20222;-68
2023/06/11 04:04:53;;;;;;;9.40;8.13;;;;;;;19.77;74.73;100433.81;5048916;28;20705;-69
2023/06/11 04:07:19;;;;;;;10.37;8.00;;;;;;;19.79;74.63;100431.09;5062078;28;20203;-69
2023/06/11 04:09:46;;;;;;;11.13;7.87;;;;;;;19.82;74.89;100442.66;5052245;28;20208;-70
2023/06/11 04:12:12;;;;;;;9.07;8.17;;;;;;;19.87;74.57;100446.13;5067147;28;20621;-69
2023/06/11 04:14:38;;;;;;;10.97;7.50;;;;;;;19.94;74.28;100434.28;5070784;28;20226;-69
2023/06/11 04:17:05;;;;;;;9.65;7.82;;;;;;;19.90;74.71;100442.47;5072581;28;20312;-69
2023/06/11 04:19:32;;;;;;;9.65;7.43;;;;;;;19.98;74.13;100432.41;5071769;28;20225;-69
2023/06/11 04:21:58;;;;;;;10.52;8.27;;;;;;;20.06;73.49;100437.63;5051963;28;20223;-69
2023/06/11 04:24:25;;;;;;;10.37;7.50;;;;;;;20.08;73.81;100431.28;5048799;28;20646;-69
2023/06/11 04:26:51;;;;;;;11.00;7.63;;;;;;;20.15;73.05;100435.56;5043866;28;20331;-69
2023/06/11 04:29:18;;;;;;;9.68;7.30;;;;;;;20.21;72.88;100435.41;5047293;28;20199;-69
2023/06/11 04:31:47;;;;;;;8.98;7.75;;;;;;;20.28;72.42;100428.06;5057224;28;20247;-68
2023/06/11 04:34:16;;;;;;;8.80;7.77;;;;;;;20.25;73.02;100433.53;5071387;28;20662;-69
2023/06/11 04:36:44;;;;;;;9.32;7.65;;;;;;;20.27;72.67;100435.25;5071788;28;20234;-69
2023/06/11 04:39:10;;;;;;;9.55;7.95;;;;;;;20.33;72.27;100439.59;5049459;28;20209;-69
2023/06/11 04:41:37;;;;;;;9.07;7.70;;;;;;;20.43;72.04;100449.25;5064258;28;20209;-68
2023/06/11 04:44:04;;;;;;;11.95;8.55;;;;;;;20.50;71.26;100437.41;5052467;28;20329;-69
2023/06/11 04:46:32;;;;;;;10.38;7.75;;;;;;;20.57;71.05;100438.13;5061640;28;21599;-69
2023/06/11 04:49:00;;;;;;;9.90;7.05;;;;;;;20.68;69.63;100438.69;5071323;28;20426;-69
2023/06/11 04:51:32;;;;;;;8.27;7.47;;;;;;;20.70;69.38;100433.28;5072203;28;20202;-69
2023/06/11 04:54:07;;;;;;;8.13;7.32;;;;;;;20.75;69.19;100437.59;5060190;28;20194;-69
2023/06/11 04:56:34;;;;;;;9.80;7.55;;;;;;;20.85;68.49;100436.44;5050500;28;20216;-68
2023/06/11 04:59:03;;;;;;;8.82;7.32;;;;;;;20.95;68.27;100440.63;5056626;28;20233;-69
2023/06/11 05:01:32;;;;;;;8.70;7.53;;;;;;;21.02;67.71;100435.94;5054419;28;20210;-69
2023/06/11 05:03:58;;;;;;;9.80;7.60;;;;;;;21.11;67.60;100448.25;5065607;28;20218;-68
2023/06/11 05:06:25;;;;;;;10.32;7.80;;;;;;;21.19;66.67;100448.91;5067831;28;20738;-68
2023/06/11 05:08:52;;;;;;;9.40;7.47;;;;;;;21.27;65.73;100445.13;5050440;28;20206;-68
2023/06/11 05:11:18;;;;;;;11.52;7.35;;;;;;;21.33;65.62;100449.44;5050279;28;20199;-69
2023/06/11 05:13:45;;;;;;;10.52;7.40;;;;;;;21.36;65.01;100443.97;5054076;28;20285;-68
2023/06/11 05:16:12;;;;;;;8.52;7.32;;;;;;;21.42;65.37;100446.47;5099101;22;20222;-66
2023/06/11 05:18:39;;;;;;;10.10;7.53;;;;;;;21.54;64.86;100450.59;5075043;28;20201;-65
2023/06/11 05:21:06;;;;;;;8.32;7.07;;;;;;;21.57;64.62;100459.47;5080864;28;20200;-66
2023/06/11 05:23:33;;;;;;;9.35;7.18;;;;;;;21.64;64.41;100451.22;5070508;28;20226;-66
2023/06/11 05:26:08;;;;;;;9.85;7.13;;;;;;;21.70;64.61;100457.31;5057929;28;20754;-66
2023/06/11 05:28:35;;;;;;;7.90;6.95;;;;;;;21.86;63.88;100458.56;5062505;28;20208;-65
2023/06/11 05:31:05;;;;;;;9.02;7.28;;;;;;;22.33;61.58;100461.56;5066391;28;20652;-66
2023/06/11 05:33:31;;;;;;;9.13;7.32;;;;;;;22.51;60.61;100454.66;5061141;28;20277;-65
2023/06/11 05:35:58;;;;;;;10.25;7.90;;;;;;;22.41;60.16;100464.88;5070543;28;20506;-65
2023/06/11 05:38:24;;;;;;;7.60;6.80;;;;;;;22.40;60.40;100462.22;5055981;28;20205;-66
2023/06/11 05:40:51;;;;;;;7.85;7.05;;;;;;;22.36;60.48;100468.66;5056701;28;20289;-66
2023/06/11 05:43:17;;;;;;;8.05;7.25;;;;;;;22.38;60.48;100459.59;5056979;28;20218;-66
2023/06/11 05:45:51;;;;;;;8.73;7.60;;;;;;;22.49;59.86;100467.34;5055922;28;20243;-65
2023/06/11 05:48:17;;;;;;;8.40;6.95;;;;;;;22.73;59.63;100468.28;5064672;28;20198;-65
2023/06/11 05:50:44;;;;;;;7.80;7.00;;;;;;;22.80;58.70;100468.03;5070644;28;20198;-65
2023/06/11 05:53:10;;;;;;;9.80;7.28;;;;;;;22.90;58.99;100465.91;5052919;28;20197;-66
2023/06/11 05:55:40;;;;;;;9.15;7.30;;;;;;;22.76;58.33;100473.56;5055042;28;20218;-66
2023/06/11 05:58:06;;;;;;;8.05;7.13;;;;;;;22.89;59.01;100469.56;5045382;28;20209;-66
2023/06/11 06:00:32;;;;;;;9.00;7.35;;;;;;;22.84;58.73;100476.06;5063160;28;20389;-65
2023/06/11 06:03:01;;;;;;;8.65;7.60;;;;;;;22.79;58.83;100481.56;5071115;28;20217;-66
2023/06/11 06:05:28;;;;;;;8.95;7.28;;;;;;;22.78;58.92;100477.97;5070244;28;20236;-65
2023/06/11 06:07:55;;;;;;;10.38;7.43;;;;;;;22.73;58.91;100470.97;5060359;28;20251;-65
2023/06/11 06:10:21;;;;;;;8.10;7.30;;;;;;;22.73;58.13;100465.59;5048803;28;20203;-66
2023/06/11 06:12:48;;;;;;;8.30;7.40;;;;;;;22.76;58.86;100473.56;5056215;28;20205;-65
2023/06/11 06:15:14;;;;;;;14.70;7.70;;;;;;;22.80;58.49;100481.53;5055895;28;20232;-65
2023/06/11 06:17:41;;;;;;;8.85;7.53;;;;;;;22.93;58.36;100489.22;5060913;28;20217;-65
2023/06/11 06:20:10;;;;;;;8.93;7.93;;;;;;;23.09;58.04;100491.31;5070523;28;20301;-66
2023/06/11 06:22:38;;;;;;;8.85;7.93;;;;;;;23.26;57.83;100488.00;5070798;28;20232;-65
2023/06/11 06:25:05;;;;;;;10.60;8.05;;;;;;;23.40;57.33;100491.06;5065677;28;20220;-65
2023/06/11 06:27:34;;;;;;;8.27;7.32;;;;;;;23.61;57.17;100500.19;5053857;28;20257;-66
2023/06/11 06:30:01;;;;;;;11.18;7.57;;;;;;;23.66;55.90;100500.94;5064386;28;20200;-66
2023/06/11 06:32:28;;;;;;;9.07;7.10;;;;;;;23.67;55.59;100502.69;5068749;28;20198;-66
2023/06/11 06:34:55;;;;;;;8.90;7.13;;;;;;;23.53;56.33;100506.81;5062739;28;20223;-65
2023/06/11 06:37:22;;;;;;;8.90;7.25;;;;;;;23.55;56.72;100504.94;5070523;28;20197;-66
2023/06/11 06:39:48;;;;;;;8.50;7.40;;;;;;;23.58;56.68;100510.25;5073929;28;20200;-66
2023/06/11 06:42:15;;;;;;;9.73;7.85;;;;;;;23.42;56.60;100507.22;5063004;28;20321;-65
2023/06/11 06:44:41;;;;;;;8.80;7.40;;;;;;;23.46;56.71;100516.97;5070307;28;20221;-65
2023/06/11 06:47:08;;;;;;;9.05;7.35;;;;;;;23.55;57.05;100515.75;5069161;28;20198;-65
2023/06/11 06:49:35;;;;;;;9.27;7.65;;;;;;;23.64;56.54;100516.34;5070870;28;20194;-66
2023/06/11 06:52:02;;;;;;;9.13;7.85;;;;;;;23.67;56.15;100512.63;5050152;28;20217;-66
2023/06/11 06:54:28;;;;;;;8.88;7.57;;;;;;;23.79;55.81;100508.56;5072152;28;20197;-65
2023/06/11 06:56:55;;;;;;;9.52;7.93;;;;;;;23.87;55.55;100510.03;5050236;28;20218;-66
2023/06/11 06:59:21;;;;;;;8.07;7.07;;;;;;;23.98;55.26;100510.47;5067517;28;20198;-65
2023/06/11 07:01:47;;;;;;;13.98;8.13;;;;;;;24.23;54.71;100517.59;5048336;28;20198;-65
2023/06/11 07:04:14;;;;;;;8.82;7.32;;;;;;;24.41;54.09;100516.88;5071957;28;20216;-66
2023/06/11 07:06:42;;;;;;;8.63;7.43;;;;;;;24.93;52.68;100509.25;5055798;28;20218;-65
2023/06/11 07:09:08;;;;;;;9.05;7.32;;;;;;;26.76;47.31;100511.44;5046061;28;20223;-66
2023/06/11 07:11:35;;;;;;;8.90;7.13;;;;;;;28.72;42.32;100505.09;5070128;28;20221;-66
2023/06/11 07:14:02;;;;;;;8.32;7.20;;;;;;;30.23;38.70;100507.41;5058756;28;20197;-66
2023/06/11 07:16:28;;;;;;;8.07;7.18;;;;;;;31.58;36.45;100522.75;5030830;28;20230;-65
2023/06/11 07:18:58;;;;;;;8.52;7.07;;;;;;;32.65;33.61;100513.00;5039897;28;20202;-66
2023/06/11 07:21:24;;;;;;;7.82;7.03;;;;;;;33.47;31.84;100506.59;5049282;28;20627;-66
2023/06/11 07:23:51;;;;;;;8.80;6.82;;;;;;;33.44;31.77;100520.56;5035126;28;20211;-66
2023/06/11 07:26:18;;;;;;;8.18;7.30;;;;;;;34.06;30.90;100522.00;5051062;28;20217;-66
2023/06/11 07:28:44;;;;;;;8.68;6.60;;;;;;;33.89;30.72;100520.63;5046083;28;20195;-66
2023/06/11 07:31:12;;;;;;;8.27;7.18;;;;;;;34.13;30.40;100515.00;5048588;28;20198;-66
2023/06/11 07:33:38;;;;;;;9.00;7.22;;;;;;;34.25;30.01;100511.22;5026166;28;20227;-66
2023/06/11 07:36:05;;;;;;;9.32;7.50;;;;;;;34.60;29.15;100519.28;5050260;28;20640;-66
2023/06/11 07:38:32;;;;;;;8.85;6.95;;;;;;;34.13;30.04;100521.38;5052439;28;20191;-66
2023/06/11 07:40:58;;;;;;;7.50;6.80;;;;;;;34.36;29.73;100515.84;5052826;28;20202;-65
2023/06/11 07:43:25;;;;;;;7.97;7.03;;;;;;;34.45;29.85;100520.59;5041447;28;20214;-65
2023/06/11 07:45:51;;;;;;;8.05;7.10;;;;;;;34.78;29.37;100525.06;5046163;28;20229;-66
2023/06/11 07:48:18;;;;;;;8.38;7.20;;;;;;;34.47;29.27;100518.59;5044603;28;20202;-66
2023/06/11 07:50:44;;;;;;;9.02;7.20;;;;;;;34.52;29.55;100514.44;5049074;28;20209;-65
2023/06/11 07:53:12;;;;;;;7.40;6.68;;;;;;;33.36;30.41;100522.19;5052253;28;20613;-65
2023/06/11 07:55:40;;;;;;;10.18;7.35;;;;;;;32.24;32.89;100521.59;5052214;28;20725;-66
2023/06/11 07:58:06;;;;;;;12.43;8.02;;;;;;;32.03;33.87;100522.22;5047472;28;20659;-66
2023/06/11 08:00:33;;;;;;;9.20;7.10;;;;;;;31.96;33.80;100520.88;5044048;28;20195;-65
2023/06/11 08:02:59;;;;;;;7.85;6.53;;;;;;;32.24;33.07;100513.38;5044597;28;20221;-65
2023/06/11 08:05:26;;;;;;;8.00;7.20;;;;;;;32.11;33.28;100513.41;5047436;28;20276;-65
2023/06/11 08:07:53;;;;;;;9.57;7.57;;;;;;;32.42;32.53;100517.50;5039393;28;20226;-66
2023/06/11 08:10:19;;;;;;;8.20;6.70;;;;;;;32.92;31.89;100513.66;5046007;28;20195;-66
2023/06/11 08:12:45;;;;;;;7.82;7.07;;;;;;;32.89;32.17;100513.91;5052047;28;20199;-66
2023/06/11 08:15:12;;;;;;;7.97;7.07;;;;;;;32.94;31.84;100508.94;5046351;28;20232;-65
2023/06/11 08:17:38;;;;;;;7.18;6.47;;;;;;;32.76;32.06;100515.78;5051874;28;20526;-65
2023/06/11 08:20:09;;;;;;;7.57;6.88;;;;;;;31.65;32.79;100515.88;5052068;28;20480;-66
2023/06/11 08:22:36;;;;;;;12.98;7.35;;;;;;;30.83;33.91;100517.09;5042710;28;20227;-66
2023/06/11 08:25:02;;;;;;;8.40;7.13;;;;;;;30.95;34.71;100509.88;5045008;28;20223;-66
2023/06/11 08:27:29;;;;;;;8.50;7.18;;;;;;;30.69;34.62;100511.66;5043744;28;20728;-65
2023/06/11 08:29:55;;;;;;;7.88;7.07;;;;;;;30.33;35.13;100504.06;5049307;28;20286;-66
2023/06/11 08:32:21;;;;;;;10.10;7.13;;;;;;;30.11;35.43;100505.50;5051748;28;20571;-66
2023/06/11 08:34:48;;;;;;;8.80;6.65;;;;;;;30.28;35.29;100503.50;5042917;28;20612;-66
2023/06/11 08:37:15;;;;;;;8.32;7.07;;;;;;;30.25;35.63;100504.56;5051815;28;20282;-65
2023/06/11 08:39:41;;;;;;;9.27;7.38;;;;;;;29.59;35.96;100508.81;5037552;28;20271;-65
2023/06/11 08:42:07;;;;;;;8.13;7.07;;;;;;;29.10;36.70;100501.91;5040700;28;20208;-66
2023/06/11 08:44:37;;;;;;;9.73;6.93;;;;;;;28.69;37.21;100499.81;5044196;28;20216;-66
2023/06/11 08:47:04;;;;;;;10.40;7.38;;;;;;;27.63;39.54;100498.69;5044741;28;20201;-65
2023/06/11 08:49:33;;;;;;;8.85;7.28;;;;;;;27.92;39.18;100503.38;5045897;28;20651;-66
2023/06/11 08:52:04;;;;;;;8.90;7.05;;;;;;;28.23;39.29;100502.50;5047060;28;20206;-66
2023/06/11 08:54:31;;;;;;;8.38;7.15;;;;;;;28.29;38.43;100502.16;5049436;28;20235;-66
2023/06/11 08:56:59;;;;;;;8.43;7.15;;;;;;;28.34;38.14;100485.56;5041482;28;20309;-66
2023/06/11 08:59:25;;;;;;;9.57;7.22;;;;;;;28.46;37.78;100493.03;5038940;28;20253;-65
2023/06/11 09:01:52;;;;;;;8.50;7.35;;;;;;;28.61;37.98;100492.09;5044193;28;20199;-65
2023/06/11 09:04:20;;;;;;;8.25;7.40;;;;;;;27.93;37.31;100496.97;5051010;28;20218;-65
2023/06/11 09:07:00;;;;;;;8.27;7.00;;;;;;;27.75;37.97;100488.00;5051186;28;20226;-65
2023/06/11 09:09:27;;;;;;;10.27;7.10;;;;;;;28.10;38.40;100487.84;5042604;28;20199;-65
2023/06/11 09:11:53;;;;;;;8.07;7.25;;;;;;;28.49;37.66;100475.63;5041757;28;20206;-65
2023/06/11 09:14:21;;;;;;;8.82;7.10;;;;;;;28.47;37.17;100478.44;5039780;28;20222;-65
2023/06/11 09:16:48;;;;;;;10.25;7.47;;;;;;;28.08;37.55;100487.94;5027872;28;20226;-66
2023/06/11 09:19:18;;;;;;;8.90;7.13;;;;;;;28.16;37.78;100481.16;5054483;28;20732;-65
2023/06/11 09:21:52;;;;;;;8.63;7.10;;;;;;;28.50;37.37;100480.97;5070839;28;20258;-66
2023/06/11 09:24:20;;;;;;;7.80;7.00;;;;;;;28.80;36.14;100480.09;5070443;28;20220;-66
2023/06/11 09:26:58;;;;;;;7.75;6.82;;;;;;;28.77;36.88;100485.72;5053896;28;20285;-66
2023/06/11 09:29:27;;;;;;;9.57;6.40;;;;;;;28.95;33.97;100484.66;5056257;28;20277;-65
2023/06/11 09:32:03;;;;;;;8.00;5.90;;;;;;;29.14;31.97;100482.53;5052529;28;20191;-66
2023/06/11 09:34:41;;;;;;;7.68;5.85;;;;;;;29.29;31.04;100486.19;5062109;28;20198;-65
2023/06/11 09:37:11;;;;;;;8.00;5.90;;;;;;;29.29;31.57;100484.31;5070548;28;20579;-66
2023/06/11 09:39:42;;;;;;;8.80;5.95;;;;;;;29.43;29.84;100480.72;5054911;28;20199;-65
2023/06/11 09:42:23;;;;;;;9.00;6.20;;;;;;;29.45;29.68;100488.84;5050775;28;20198;-65
2023/06/11 09:44:50;;;;;;;10.02;5.93;;;;;;;29.53;30.13;100481.91;5069959;28;20613;-65
2023/06/11 09:47:17;;;;;;;7.93;5.82;;;;;;;29.55;29.87;100481.81;5062349;28;20669;-66
2023/06/11 09:49:44;;;;;;;6.95;5.90;;;;;;;29.59;28.81;100484.25;5069716;28;20198;-65
2023/06/11 09:52:11;;;;;;;7.22;5.82;;;;;;;29.67;29.21;100489.25;5070007;28;20198;-66
2023/06/11 09:54:40;;;;;;;11.43;5.88;;;;;;;29.69;29.35;100484.56;5049445;28;20368;-65
2023/06/11 09:57:08;;;;;;;7.60;6.35;;;;;;;29.75;29.98;100488.75;5047053;28;20634;-65
2023/06/11 09:59:36;;;;;;;6.05;5.43;;;;;;;29.68;28.90;100491.00;5053810;28;20194;-66
2023/06/11 10:02:04;;;;;;;7.75;5.68;;;;;;;29.61;28.69;100486.88;5070047;28;20194;-65
2023/06/11 10:04:30;;;;;;;8.57;5.65;;;;;;;29.61;28.90;100492.34;5059699;28;20609;-66
2023/06/11 10:06:56;;;;;;;13.45;5.43;;;;;;;29.61;26.61;100486.88;5052218;28;20301;-65
2023/06/11 10:09:24;;;;;;;7.22;5.55;;;;;;;29.26;27.75;100476.34;5061297;28;20195;-65
2023/06/11 10:11:51;;;;;;;8.48;5.13;;;;;;;29.46;27.82;100479.69;5045624;28;20539;-65
2023/06/11 10:14:17;;;;;;;7.00;5.60;;;;;;;29.49;28.05;100502.19;5049567;28;20214;-65
2023/06/11 10:16:50;;;;;;;6.75;5.40;;;;;;;29.57;28.11;100488.94;5046940;28;20724;-66
2023/06/11 10:19:17;;;;;;;8.52;5.63;;;;;;;29.66;28.28;100475.69;5064839;28;20194;-65
2023/06/11 10:21:55;;;;;;;7.25;5.75;;;;;;;29.61;28.77;100493.22;5062383;28;20202;-65
2023/06/11 10:24:26;;;;;;;9.45;6.18;;;;;;;29.66;28.16;100487.50;5070006;28;20217;-65
2023/06/11 10:27:07;;;;;;;6.85;5.57;;;;;;;29.79;28.42;100488.44;5054941;28;20210;-65
2023/06/11 10:29:38;;;;;;;6.32;5.70;;;;;;;29.92;28.56;100485.78;5035381;28;20195;-65
2023/06/11 10:32:19;;;;;;;10.30;6.03;;;;;;;30.12;28.95;100484.53;5049412;28;20238;-65
2023/06/11 10:34:57;;;;;;;7.70;6.22;;;;;;;30.10;29.02;100479.16;5054057;28;20245;-65
2023/06/11 10:37:32;;;;;;;8.68;5.93;;;;;;;30.28;28.60;100467.97;5058246;28;20662;-66
2023/06/11 10:39:58;;;;;;;7.07;6.13;;;;;;;29.69;29.37;100479.09;5066796;28;20203;-65
2023/06/11 10:42:33;;;;;;;9.40;5.97;;;;;;;29.93;29.58;100482.94;5049701;28;20207;-65
2023/06/11 10:45:00;;;;;;;8.55;6.00;;;;;;;30.23;29.19;100479.22;5050063;28;20594;-66
2023/06/11 10:47:29;;;;;;;7.90;6.10;;;;;;;30.50;28.32;100473.75;5052431;28;20255;-65
2023/06/11 10:50:09;;;;;;;9.45;5.82;;;;;;;30.64;28.01;100478.28;5069438;28;20681;-65
2023/06/11 10:52:50;;;;;;;6.35;5.60;;;;;;;30.89;27.36;100463.81;5058008;28;20202;-65
2023/06/11 10:55:20;;;;;;;7.32;6.28;;;;;;;31.15;27.70;100476.53;5069175;28;20292;-65
2023/06/11 10:57:51;;;;;;;7.30;5.63;;;;;;;31.38;27.02;100473.06;5053351;28;20241;-66
2023/06/11 11:00:18;;;;;;;8.57;6.05;;;;;;;31.39;26.61;100471.22;5051862;28;20278;-65
2023/06/11 11:02:46;;;;;;;7.72;6.40;;;;;;;31.14;26.59;100463.81;5048974;28;20217;-65
2023/06/11 11:05:13;;;;;;;10.88;6.10;;;;;;;31.32;26.82;100465.31;5066617;28;20249;-66
2023/06/11 11:07:44;;;;;;;9.10;6.32;;;;;;;31.33;27.24;100456.09;5069372;28;20277;-66
2023/06/11 11:10:12;;;;;;;6.70;6.00;;;;;;;31.51;27.62;100467.56;5065956;28;20194;-66
2023/06/11 11:12:45;;;;;;;9.07;7.32;;;;;;;31.81;27.51;100459.03;5064094;28;20214;-65
2023/06/11 11:15:12;;;;;;;12.65;6.57;;;;;;;32.01;26.93;100466.63;5074808;22;20313;-66
2023/06/11 11:17:40;;;;;;;7.40;6.13;;;;;;;32.01;26.67;100461.13;5069842;28;20197;-66
2023/06/11 11:20:08;;;;;;;7.88;6.97;;;;;;;31.82;26.35;100460.78;5079809;28;20284;-66
2023/06/11 11:22:36;;;;;;;7.78;6.13;;;;;;;31.69;27.59;100455.28;5089928;28;20653;-66
2023/06/11 11:25:04;;;;;;;9.93;7.20;;;;;;;31.62;27.39;100461.31;5082504;28;20210;-66
2023/06/11 11:27:32;;;;;;;7.45;6.65;;;;;;;31.65;27.11;100461.13;5066399;28;20738;-66